2018 Coast to Coast Gravel Grinder
Skip Navigation Links
Results
Mobile Results
12 May 2018
Page 1 of 3 (136 items)
[1]23
Pos
Race No
Fav
Share
Print
Name
Time
Category
Cat Pos
Gender
Gen Pos
Checkpoint
Pace
Finish
Pace
1377JACK PADEGA5:54:07Ovral1M13:18:0016.7 m/hr5:54:0716.9 m/hr
2364JOHN MEYERS5:54:10Ovral2M23:18:0016.7 m/hr5:54:1016.9 m/hr
3369BRIAN MONTON5:54:11Ovral3M33:18:0016.7 m/hr5:54:1116.9 m/hr
4397RYAN SCHMELING6:10:2330-391M43:18:0016.7 m/hr6:10:2316.2 m/hr
5328JESSE GOULD6:36:54MFtBk1M53:34:0015.4 m/hr6:36:5415.1 m/hr
6411SCOTT STEURER6:36:5550-591M63:34:0015.4 m/hr6:36:5515.1 m/hr
7399TRAVIS SCHWARTZ6:39:0940-491M73:36:0015.3 m/hr6:39:0915.0 m/hr
8285MARK ARMSTRONG6:40:1250-592M83:38:0015.1 m/hr6:40:1215.0 m/hr
9332ANTHONY GWIN6:40:1350-593M93:38:0015.1 m/hr6:40:1315.0 m/hr
10322CALEB FRITZ6:40:3030-392M103:38:0015.1 m/hr6:40:3015.0 m/hr
11374RUSSELL NICHOLS6:41:3140-492M113:34:0015.4 m/hr6:41:3114.9 m/hr
12340TODD HENRICKSON6:42:0440-493M123:38:0015.1 m/hr6:42:0414.9 m/hr
13284MICHAEL ANGELL6:44:4950-594M133:37:0015.2 m/hr6:44:4914.8 m/hr
14426BRUCE PISAREK6:48:5940-494M143:34:0015.4 m/hr6:48:5914.7 m/hr
15336SCOTT HARRIS6:50:2640-495M153:35:0015.3 m/hr6:50:2614.6 m/hr
16394JESSIE RUNNOE6:50:28Ovral1F13:52:0014.2 m/hr6:50:2814.6 m/hr
17289DAVID BEADLE6:51:4650-595M163:37:0015.2 m/hr6:51:4614.6 m/hr
18310TODD DEWAARD6:55:44MSS1M173:54:0014.1 m/hr6:55:4414.4 m/hr
19421MICHAEL WEAR6:56:5640-496M183:38:0015.1 m/hr6:56:5614.4 m/hr
20350FRED IVERSEN6:59:4040-497M193:50:0014.3 m/hr6:59:4014.3 m/hr
21290CHRIS BEGGS6:59:43MFtBk2M203:45:0014.7 m/hr6:59:4314.3 m/hr
22327HEATHER GOSS7:00:15Ovral2F23:48:0014.5 m/hr7:00:1514.3 m/hr
23280BRAD ALLEN7:02:35MFtBk3M21 7:02:3514.2 m/hr
24311TEAM DEWENT7:03:10Tandm1M223:48:0014.5 m/hr7:03:1014.2 m/hr
25306SHAWN COOPER7:03:2240-498M233:53:0014.2 m/hr7:03:2214.2 m/hr
26347STACEY HUGHES7:03:23Ovral3F33:53:0014.2 m/hr7:03:2314.2 m/hr
27291JASON BENNETT7:07:4830-393M243:48:0014.5 m/hr7:07:4814.0 m/hr
28314JARED DUNHAM7:10:0116-291M253:52:0014.2 m/hr7:10:0114.0 m/hr
29406DOUG SMITH7:10:0450-596M263:44:0014.7 m/hr7:10:0414.0 m/hr
30352TEAM JAMES/LORI7:10:41Tandm2M273:50:0014.3 m/hr7:10:4113.9 m/hr
31396JIM SARKS7:17:0250-597M283:43:0014.8 m/hr7:17:0213.7 m/hr
32337CHARLIE HARRISON7:20:2330-394M293:52:0014.2 m/hr7:20:2313.6 m/hr
33309SCOTT DAIGLE7:20:2340-499M303:52:0014.2 m/hr7:20:2313.6 m/hr
34381MICHAEL PETERSEN7:33:2450-598M313:45:0014.7 m/hr7:33:2413.2 m/hr
35315ELEANOR DYAS7:34:1016-291F43:57:0013.9 m/hr7:34:1013.2 m/hr
36316GREGORY DYAS7:34:1440-4910M323:57:0013.9 m/hr7:34:1413.2 m/hr
37324DAN GADBERY7:34:3260+1M334:09:0013.3 m/hr7:34:3213.2 m/hr
38281COOPER AMBJORN7:34:3330-391F53:58:0013.9 m/hr7:34:3313.2 m/hr
39422JOHN WHEELER II7:36:0250-599M344:09:0013.3 m/hr7:36:0213.2 m/hr
40375DANIEL W NORBECK7:42:1450-5910M353:54:0014.1 m/hr7:42:1413.0 m/hr
41287JEFF BARRETT7:44:2350-5911M363:45:0014.7 m/hr7:44:2312.9 m/hr
42344TODD HOCKENBERRY7:46:3140-4911M374:12:0013.1 m/hr7:46:3112.9 m/hr
43317MICHAEL FAEHNLE7:46:3360+2M384:04:0013.5 m/hr7:46:3312.9 m/hr
44323GENE FRUIT7:48:3540-4912M394:15:0012.9 m/hr7:48:3512.8 m/hr
45423DOUG ZANK7:51:0950-5912M403:58:0013.9 m/hr7:51:0912.7 m/hr
46417JEFFREY VANERP7:51:1750-5913M413:58:0013.9 m/hr7:51:1712.7 m/hr
47335MARTIN HARRIS7:51:5616-292M423:51:0014.3 m/hr7:51:5612.7 m/hr
48408KEVIN SOULES7:52:2830-395M434:02:0013.6 m/hr7:52:2812.7 m/hr
49325TIM GALLAGHER7:53:5740-4913M444:04:0013.5 m/hr7:53:5712.7 m/hr
50418AL WADE7:53:5740-4914M454:04:0013.5 m/hr7:53:5712.7 m/hr
Page 1 of 3 (136 items)
[1]23
fb